Time;durP1;ratioP1;P1;durP2;ratioP2;P2;SDS_P1;SDS_P2;PMS_P1;PMS_P2;Temp;Humidity;BMP_temperature;BMP_pressure;BME280_temperature;BME280_humidity;BME280_pressure;Samples;Min_cycle;Max_cycle;Signal;HPM_P1;HPM_P2
2023/10/23 00:01:38;;;;;;;;;;;;;;;21.58;46.20;100807.31;7394869;19;1585;-41
2023/10/23 00:04:06;;;;;;;;;;;;;;;21.56;45.59;100820.09;7396486;19;1502;-41
2023/10/23 00:06:37;;;;;;;;;;;;;;;21.54;45.74;100814.84;7396925;19;1533;-41
2023/10/23 00:09:06;;;;;;;;;;;;;;;21.53;45.41;100817.72;7397292;19;1244;-41
2023/10/23 00:11:34;;;;;;;;;;;;;;;21.53;45.50;100805.09;7395743;19;1776;-41
2023/10/23 00:14:03;;;;;;;;;;;;;;;21.51;45.31;100817.84;7392169;19;1896;-41
2023/10/23 00:16:31;;;;;;;;;;;;;;;21.49;45.98;100803.72;7394395;19;1909;-41
2023/10/23 00:18:59;;;;;;;;;;;;;;;21.47;45.71;100804.84;7394637;19;1807;-42
2023/10/23 00:21:28;;;;;;;;;;;;;;;21.47;45.80;100799.44;7394240;19;1514;-41
2023/10/23 00:23:59;;;;;;;;;;;;;;;21.47;45.81;100807.53;7394233;19;1803;-41
2023/10/23 00:26:27;;;;;;;;;;;;;;;21.47;45.60;100804.84;7395090;19;1519;-41
2023/10/23 00:28:55;;;;;;;;;;;;;;;21.45;45.58;100813.09;7396229;19;1561;-42
2023/10/23 00:31:24;;;;;;;;;;;;;;;21.44;45.81;100817.59;7395668;19;1371;-41
2023/10/23 00:33:52;;;;;;;;;;;;;;;21.44;45.32;100827.50;7392422;19;1844;-41
2023/10/23 00:36:20;;;;;;;;;;;;;;;21.41;45.53;100804.44;7393907;19;1752;-41
2023/10/23 00:38:49;;;;;;;;;;;;;;;21.41;45.15;100809.81;7394374;19;1836;-41
2023/10/23 00:41:19;;;;;;;;;;;;;;;21.39;45.32;100811.81;7391291;19;1636;-41
2023/10/23 00:43:48;;;;;;;;;;;;;;;21.40;46.31;100818.03;7393508;19;1502;-40
2023/10/23 00:46:17;;;;;;;;;;;;;;;21.40;45.63;100816.16;7393447;19;1827;-40
2023/10/23 00:48:46;;;;;;;;;;;;;;;21.38;45.80;100823.53;7393030;19;1489;-39
2023/10/23 00:51:14;;;;;;;;;;;;;;;21.42;46.21;100824.94;7391338;19;1633;-39
2023/10/23 00:53:44;;;;;;;;;;;;;;;21.39;45.77;100827.94;7391739;19;1857;-39
2023/10/23 00:56:12;;;;;;;;;;;;;;;21.39;45.35;100822.56;7391951;19;1414;-39
2023/10/23 00:58:45;;;;;;;;;;;;;;;21.36;45.54;100820.16;7379552;19;1384;-39
2023/10/23 01:01:14;;;;;;;;;;;;;;;21.34;45.55;100827.53;7392501;19;1977;-39
2023/10/23 01:03:43;;;;;;;;;;;;;;;21.34;46.12;100827.53;7393852;19;1261;-39
2023/10/23 01:06:12;;;;;;;;;;;;;;;21.33;45.42;100833.91;7392069;19;1963;-39
2023/10/23 01:08:41;;;;;;;;;;;;;;;21.34;45.47;100827.53;7393488;19;1902;-39
2023/10/23 01:11:09;;;;;;;;;;;;;;;21.30;45.44;100819.91;7391627;19;1819;-39
2023/10/23 01:13:37;;;;;;;;;;;;;;;21.32;45.50;100824.16;7392172;19;1839;-39
2023/10/23 01:16:08;;;;;;;;;;;;;;;21.31;45.16;100838.59;7392472;19;1519;-39
2023/10/23 01:18:36;;;;;;;;;;;;;;;21.31;45.42;100837.75;7392522;19;1454;-39
2023/10/23 01:21:05;;;;;;;;;;;;;;;21.31;45.39;100832.34;7392315;19;1429;-39
2023/10/23 01:23:35;;;;;;;;;;;;;;;21.29;45.44;100824.47;7391648;19;1617;-39
2023/10/23 01:26:06;;;;;;;;;;;;;;;21.30;45.47;100839.59;7391787;19;1494;-39
2023/10/23 01:28:34;;;;;;;;;;;;;;;21.30;45.64;100842.28;7392637;19;1501;-39
2023/10/23 01:31:03;;;;;;;;;;;;;;;21.33;45.66;100836.63;7391652;19;1562;-39
2023/10/23 01:33:31;;;;;;;;;;;;;;;21.27;45.12;100823.75;7392320;19;1840;-39
2023/10/23 01:36:00;;;;;;;;;;;;;;;21.24;45.03;100838.34;7389763;19;1886;-39
2023/10/23 01:38:28;;;;;;;;;;;;;;;21.23;45.05;100830.44;7390143;19;1564;-39
2023/10/23 01:40:56;;;;;;;;;;;;;;;21.20;45.45;100822.66;7391760;19;1566;-39
2023/10/23 01:43:27;;;;;;;;;;;;;;;21.20;45.41;100815.44;7390942;19;1588;-39
2023/10/23 01:45:55;;;;;;;;;;;;;;;21.24;44.90;100832.97;7392112;19;1847;-39
2023/10/23 01:48:24;;;;;;;;;;;;;;;21.20;45.29;100823.50;7388285;19;1680;-39
2023/10/23 01:50:52;;;;;;;;;;;;;;;21.19;45.25;100815.59;7390076;19;1831;-39
2023/10/23 01:53:21;;;;;;;;;;;;;;;21.19;45.16;100826.34;7390575;19;1839;-39
2023/10/23 01:55:49;;;;;;;;;;;;;;;21.19;45.07;100834.41;7393175;19;1493;-39
2023/10/23 01:58:18;;;;;;;;;;;;;;;21.20;44.95;100825.34;7377461;19;1871;-39
2023/10/23 02:00:49;;;;;;;;;;;;;;;21.19;45.02;100851.41;7390304;19;2211;-39
2023/10/23 02:03:17;;;;;;;;;;;;;;;21.17;45.17;100836.38;7390707;19;1509;-39
2023/10/23 02:05:46;;;;;;;;;;;;;;;21.16;45.29;100840.09;7391496;19;1751;-39
2023/10/23 02:08:16;;;;;;;;;;;;;;;21.17;44.74;100839.06;7394449;19;1602;-39
2023/10/23 02:10:45;;;;;;;;;;;;;;;21.15;45.07;100846.44;7397497;19;1462;-39
2023/10/23 02:13:13;;;;;;;;;;;;;;;21.16;44.90;100838.22;7397088;19;1853;-41
2023/10/23 02:15:41;;;;;;;;;;;;;;;21.18;45.03;100846.16;7398827;19;1509;-39
2023/10/23 02:18:12;;;;;;;;;;;;;;;21.18;44.94;100843.47;7398264;19;1491;-39
2023/10/23 02:20:40;;;;;;;;;;;;;;;21.16;45.36;100848.16;7398978;19;1597;-39
2023/10/23 02:23:08;;;;;;;;;;;;;;;21.16;44.98;100840.09;7398390;19;1459;-41
2023/10/23 02:25:37;;;;;;;;;;;;;;;21.18;45.31;100838.09;7399182;19;1614;-42
2023/10/23 02:28:06;;;;;;;;;;;;;;;21.12;45.19;100858.34;7399258;19;1474;-40
2023/10/23 02:30:34;;;;;;;;;;;;;;;21.15;45.46;100843.75;7399913;19;1827;-39
2023/10/23 02:33:02;;;;;;;;;;;;;;;21.18;45.44;100865.81;7398114;19;1865;-39
2023/10/23 02:35:36;;;;;;;;;;;;;;;21.16;45.31;100857.06;7397834;19;1725;-39
2023/10/23 02:38:05;;;;;;;;;;;;;;;21.13;44.78;100861.88;7398185;19;1818;-42
2023/10/23 02:40:33;;;;;;;;;;;;;;;21.12;44.98;100860.19;7398005;19;1815;-41
2023/10/23 02:43:03;;;;;;;;;;;;;;;21.10;44.79;100868.41;7397510;19;1705;-40
2023/10/23 02:45:31;;;;;;;;;;;;;;;21.09;45.27;100855.09;7398885;19;1550;-40
2023/10/23 02:47:59;;;;;;;;;;;;;;;20.86;44.75;100820.53;7398161;19;1827;-40
2023/10/23 02:50:28;;;;;;;;;;;;;;;21.09;45.18;100844.34;7398162;19;1515;-40
2023/10/23 02:52:59;;;;;;;;;;;;;;;21.08;45.58;100856.13;7398228;19;1842;-40
2023/10/23 02:55:28;;;;;;;;;;;;;;;21.11;44.74;100847.72;7400095;19;1030;-40
2023/10/23 02:57:56;;;;;;;;;;;;;;;21.11;45.19;100859.34;7398164;19;1838;-40
2023/10/23 03:00:24;;;;;;;;;;;;;;;21.11;45.06;100847.72;7379281;19;2400;-40
2023/10/23 03:02:53;;;;;;;;;;;;;;;21.09;45.14;100845.22;7396500;19;1530;-40
2023/10/23 03:05:21;;;;;;;;;;;;;;;21.10;45.07;100846.91;7395529;19;2577;-40
2023/10/23 03:07:50;;;;;;;;;;;;;;;21.08;45.04;100840.81;7398322;19;1826;-40
2023/10/23 03:10:21;;;;;;;;;;;;;;;21.07;45.28;100831.06;7395244;19;1506;-41
2023/10/23 03:12:50;;;;;;;;;;;;;;;21.05;45.10;100833.91;7395906;19;1493;-40
2023/10/23 03:15:19;;;;;;;;;;;;;;;21.06;45.14;100851.72;7394865;19;1861;-40
2023/10/23 03:17:47;;;;;;;;;;;;;;;21.08;45.40;100850.72;7396729;19;1530;-41
2023/10/23 03:20:15;;;;;;;;;;;;;;;21.05;45.41;100839.28;7397902;19;1466;-41
2023/10/23 03:22:44;;;;;;;;;;;;;;;21.05;45.08;100843.81;7397429;19;1773;-41
2023/10/23 03:25:13;;;;;;;;;;;;;;;21.08;45.26;100842.66;7395779;19;1957;-41
2023/10/23 03:27:44;;;;;;;;;;;;;;;21.06;45.40;100843.66;7394690;19;1491;-41
2023/10/23 03:30:13;;;;;;;;;;;;;;;21.10;45.40;100868.41;7396373;19;1771;-41
2023/10/23 03:32:41;;;;;;;;;;;;;;;21.12;45.40;100860.19;7397313;19;1554;-41
2023/10/23 03:35:10;;;;;;;;;;;;;;;21.09;45.00;100847.03;7394383;19;1897;-41
2023/10/23 03:37:38;;;;;;;;;;;;;;;21.11;46.55;100864.75;7395345;19;1473;-41
2023/10/23 03:40:09;;;;;;;;;;;;;;;21.14;44.94;100853.66;7395536;19;1818;-41
2023/10/23 03:42:38;;;;;;;;;;;;;;;21.13;45.27;100865.44;7396404;19;1529;-44
2023/10/23 03:45:09;;;;;;;;;;;;;;;21.10;44.88;100867.56;7396450;19;1399;-40
2023/10/23 03:47:38;;;;;;;;;;;;;;;21.06;45.17;100894.72;7397000;19;1431;-41
2023/10/23 03:50:07;;;;;;;;;;;;;;;21.09;44.99;100866.72;7395267;19;1471;-41
2023/10/23 03:52:35;;;;;;;;;;;;;;;21.12;45.39;100860.19;7395034;19;1815;-41
2023/10/23 03:55:03;;;;;;;;;;;;;;;21.14;45.49;100860.91;7389720;19;1846;-41
2023/10/23 03:57:32;;;;;;;;;;;;;;;21.05;45.27;100857.25;7396087;19;1436;-41
2023/10/23 04:00:00;;;;;;;;;;;;;;;21.02;45.22;100861.06;7379677;19;1358;-41
2023/10/23 04:02:31;;;;;;;;;;;;;;;21.00;45.31;100857.69;7394767;19;1755;-44
2023/10/23 04:05:00;;;;;;;;;;;;;;;21.03;45.21;100862.78;7396481;19;1570;-41
2023/10/23 04:07:28;;;;;;;;;;;;;;;21.03;45.30;100857.41;7395784;19;1581;-41
2023/10/23 04:09:57;;;;;;;;;;;;;;;21.04;45.56;100864.47;7396551;19;1299;-41
2023/10/23 04:12:25;;;;;;;;;;;;;;;21.08;45.43;100869.56;7395919;19;1846;-41
2023/10/23 04:14:53;;;;;;;;;;;;;;;21.06;45.25;100861.63;7395241;19;1837;-41
2023/10/23 04:17:22;;;;;;;;;;;;;;;21.01;45.26;100870.16;7395763;19;1923;-41
2023/10/23 04:19:53;;;;;;;;;;;;;;;21.05;45.63;100871.53;7396213;19;1709;-41
2023/10/23 04:22:21;;;;;;;;;;;;;;;21.05;45.67;100866.16;7393167;19;2591;-41
2023/10/23 04:24:53;;;;;;;;;;;;;;;21.03;45.66;100865.47;7395714;19;1458;-41
2023/10/23 04:27:21;;;;;;;;;;;;;;;21.05;45.44;100895.75;7395667;19;1605;-41
2023/10/23 04:29:49;;;;;;;;;;;;;;;21.06;45.33;100867.84;7393618;19;1640;-41
2023/10/23 04:32:18;;;;;;;;;;;;;;;21.05;45.50;100887.69;7394282;19;1613;-41
2023/10/23 04:34:46;;;;;;;;;;;;;;;21.12;45.60;100876.34;7392968;19;1838;-41
2023/10/23 04:37:17;;;;;;;;;;;;;;;21.08;45.64;100872.25;7394644;19;1766;-41
2023/10/23 04:39:45;;;;;;;;;;;;;;;21.06;45.31;100883.13;7394231;19;1537;-41
2023/10/23 04:42:14;;;;;;;;;;;;;;;21.03;45.50;100878.91;7394969;19;1456;-41
2023/10/23 04:44:42;;;;;;;;;;;;;;;21.02;45.49;100871.81;7394442;19;1828;-41
2023/10/23 04:47:10;;;;;;;;;;;;;;;21.06;45.64;100889.34;7394685;19;1608;-41
2023/10/23 04:49:38;;;;;;;;;;;;;;;21.03;45.75;100889.66;7394940;19;1487;-41
2023/10/23 04:52:07;;;;;;;;;;;;;;;21.03;45.64;100895.03;7394499;19;1529;-41
2023/10/23 04:54:38;;;;;;;;;;;;;;;21.01;45.54;100886.28;7394613;19;1868;-41
2023/10/23 04:57:08;;;;;;;;;;;;;;;21.01;45.50;100904.25;7393790;19;1451;-41
2023/10/23 04:59:37;;;;;;;;;;;;;;;21.02;45.70;100903.25;7380736;19;1530;-41
2023/10/23 05:02:05;;;;;;;;;;;;;;;21.04;45.43;100894.03;7393459;19;1579;-41
2023/10/23 05:04:33;;;;;;;;;;;;;;;21.05;45.29;100902.97;7393398;19;1431;-41
2023/10/23 05:07:02;;;;;;;;;;;;;;;21.02;45.74;100901.41;7393508;19;1384;-41
2023/10/23 05:09:30;;;;;;;;;;;;;;;21.03;45.31;100926.47;7393462;19;1473;-41
2023/10/23 05:12:01;;;;;;;;;;;;;;;21.02;45.50;100924.75;7393793;19;1660;-41
2023/10/23 05:14:29;;;;;;;;;;;;;;;21.01;45.57;100926.59;7393896;19;1853;-41
2023/10/23 05:16:58;;;;;;;;;;;;;;;21.06;45.68;100921.63;7394529;19;1300;-41
2023/10/23 05:19:26;;;;;;;;;;;;;;;21.03;45.51;100929.16;7393094;19;1566;-41
2023/10/23 05:21:55;;;;;;;;;;;;;;;21.05;45.68;100928.00;7392977;19;1558;-41
2023/10/23 05:24:23;;;;;;;;;;;;;;;21.14;45.56;100914.69;7388632;19;1534;-43
2023/10/23 05:26:51;;;;;;;;;;;;;;;21.15;45.33;100951.31;7392420;19;1831;-41
2023/10/23 05:29:22;;;;;;;;;;;;;;;21.17;45.22;100949.31;7385042;19;1498;-41
2023/10/23 05:31:51;;;;;;;;;;;;;;;21.14;45.29;100939.72;7386962;19;1629;-41
2023/10/23 05:34:19;;;;;;;;;;;;;;;21.13;45.57;100964.06;7388374;19;1865;-41
2023/10/23 05:36:47;;;;;;;;;;;;;;;21.23;45.40;100955.00;7391715;19;1522;-41
2023/10/23 05:39:16;;;;;;;;;;;;;;;21.25;45.36;100946.78;7388376;19;1441;-42
2023/10/23 05:41:44;;;;;;;;;;;;;;;21.25;45.43;100950.31;7393126;19;1596;-61
2023/10/23 05:44:13;;;;;;;;;;;;;;;21.23;45.39;100955.00;7391452;19;1463;-42
2023/10/23 05:46:44;;;;;;;;;;;;;;;21.17;45.30;100947.50;7390540;19;1531;-42
2023/10/23 05:49:12;;;;;;;;;;;;;;;21.20;45.81;100949.06;7386964;19;1943;-41
2023/10/23 05:51:40;;;;;;;;;;;;;;;21.26;45.90;100953.84;7391006;19;1547;-42
2023/10/23 05:54:09;;;;;;;;;;;;;;;21.47;45.08;100958.19;7390788;19;1840;-42
2023/10/23 05:56:38;;;;;;;;;;;;;;;21.43;44.99;100945.06;7390585;19;1562;-42
2023/10/23 05:59:06;;;;;;;;;;;;;;;21.46;45.52;100941.22;7388566;19;1621;-42
2023/10/23 06:01:34;;;;;;;;;;;;;;;21.43;45.52;100954.97;7381648;19;1570;-41
2023/10/23 06:04:06;;;;;;;;;;;;;;;21.42;45.54;100954.06;7391635;19;1388;-42
2023/10/23 06:06:34;;;;;;;;;;;;;;;21.48;45.27;100957.22;7389567;19;1946;-41
2023/10/23 06:09:04;;;;;;;;;;;;;;;21.44;45.33;100948.59;7390577;19;1557;-41
2023/10/23 06:11:32;;;;;;;;;;;;;;;21.40;45.70;100966.81;7390925;19;1522;-41
2023/10/23 06:14:00;;;;;;;;;;;;;;;21.44;45.69;100956.66;7390380;19;1850;-41
2023/10/23 06:16:29;;;;;;;;;;;;;;;21.42;45.74;100954.06;7389873;19;1149;-41
2023/10/23 06:18:57;;;;;;;;;;;;;;;21.40;45.90;100972.19;7390213;19;1473;-41
2023/10/23 06:21:28;;;;;;;;;;;;;;;21.42;45.90;100972.91;7389979;19;1594;-41
2023/10/23 06:23:56;;;;;;;;;;;;;;;21.40;45.60;100966.81;7389998;19;1608;-41
2023/10/23 06:26:25;;;;;;;;;;;;;;;21.40;45.77;100961.44;7390501;19;1569;-42
2023/10/23 06:28:53;;;;;;;;;;;;;;;21.42;45.79;100964.00;7389859;19;1615;-41
2023/10/23 06:31:21;;;;;;;;;;;;;;;21.39;45.81;100975.91;7388889;19;1918;-41
2023/10/23 06:33:51;;;;;;;;;;;;;;;21.43;45.93;100988.09;7391100;19;1501;-42
2023/10/23 06:36:20;;;;;;;;;;;;;;;21.49;46.00;100975.91;7389303;19;1861;-41
2023/10/23 06:38:51;;;;;;;;;;;;;;;21.48;46.08;100978.75;7389750;19;1548;-41
2023/10/23 06:41:19;;;;;;;;;;;;;;;21.50;45.88;100987.50;7389341;19;1582;-42
2023/10/23 06:43:47;;;;;;;;;;;;;;;21.49;45.94;100981.28;7389379;19;1537;-41
2023/10/23 06:46:15;;;;;;;;;;;;;;;21.47;46.11;100994.03;7389138;19;1585;-41
2023/10/23 06:48:47;;;;;;;;;;;;;;;21.52;46.08;100982.84;7388302;19;1553;-41
2023/10/23 06:51:16;;;;;;;;;;;;;;;21.53;45.91;100981.84;7388793;19;1578;-41
2023/10/23 06:53:44;;;;;;;;;;;;;;;21.53;46.39;100982.69;7391172;19;1472;-41
2023/10/23 06:56:15;;;;;;;;;;;;;;;21.51;46.23;100989.22;7393017;19;1847;-41
2023/10/23 06:58:43;;;;;;;;;;;;;;;21.52;46.17;100983.66;7397670;19;1514;-41
2023/10/23 07:01:13;;;;;;;;;;;;;;;21.56;46.28;100995.00;7377162;19;2451;-41
2023/10/23 07:03:41;;;;;;;;;;;;;;;21.58;46.12;100991.16;7391465;19;1792;-41
2023/10/23 07:06:10;;;;;;;;;;;;;;;21.59;46.35;100981.25;7391886;19;1578;-41
2023/10/23 07:08:39;;;;;;;;;;;;;;;21.63;46.22;100990.72;7392128;19;1487;-41
2023/10/23 07:11:17;;;;;;;;;;;;;;;21.65;46.18;100997.66;7393389;19;1549;-41
2023/10/23 07:13:46;;;;;;;;;;;;;;;21.63;46.42;100988.88;7395761;19;1538;-42
2023/10/23 07:16:14;;;;;;;;;;;;;;;21.65;46.23;100983.34;7391717;19;1840;-42
2023/10/23 07:18:43;;;;;;;;;;;;;;;21.67;46.30;101004.75;7393249;19;1534;-43
2023/10/23 07:21:11;;;;;;;;;;;;;;;21.65;46.11;100992.28;7395076;19;1609;-43
2023/10/23 07:23:39;;;;;;;;;;;;;;;21.73;46.47;100991.53;7394311;19;1434;-44
2023/10/23 07:26:10;;;;;;;;;;;;;;;21.75;46.03;100986.84;7395756;19;1580;-43
2023/10/23 07:28:41;;;;;;;;;;;;;;;21.82;46.19;100985.25;7394952;19;1800;-43
2023/10/23 07:31:10;;;;;;;;;;;;;;;21.92;46.19;100987.06;7395557;19;1924;-44
2023/10/23 07:33:39;;;;;;;;;;;;;;;22.00;46.20;100987.16;7394896;19;1823;-43
2023/10/23 07:36:08;;;;;;;;;;;;;;;22.09;46.25;100983.56;7393733;19;1867;-43
2023/10/23 07:38:37;;;;;;;;;;;;;;;22.23;46.12;100985.75;7393501;19;1828;-43
2023/10/23 07:41:06;;;;;;;;;;;;;;;22.62;45.59;100981.94;7394151;19;1799;-43
2023/10/23 07:43:34;;;;;;;;;;;;;;;22.50;45.53;100980.47;7395632;19;1826;-43
2023/10/23 07:46:08;;;;;;;;;;;;;;;22.30;46.31;100986.00;7394674;19;1795;-43
2023/10/23 07:48:37;;;;;;;;;;;;;;;22.59;45.38;100977.72;7395072;19;1721;-43
2023/10/23 07:51:06;;;;;;;;;;;;;;;22.73;45.32;100970.94;7396465;19;1674;-43
2023/10/23 07:53:35;;;;;;;;;;;;;;;22.78;45.03;100968.63;7396753;19;1176;-43
2023/10/23 07:56:04;;;;;;;;;;;;;;;22.89;45.05;100961.28;7393932;19;1865;-43
2023/10/23 07:58:32;;;;;;;;;;;;;;;22.83;45.26;100965.47;7393373;19;1581;-43
2023/10/23 08:01:05;;;;;;;;;;;;;;;22.97;44.91;100964.88;7378611;19;1835;-44
2023/10/23 08:03:36;;;;;;;;;;;;;;;22.76;45.58;100969.75;7392827;19;1488;-43
2023/10/23 08:06:05;;;;;;;;;;;;;;;22.87;45.52;100969.53;7393139;19;1819;-44
2023/10/23 08:08:34;;;;;;;;;;;;;;;22.56;45.71;100953.78;7393334;19;1910;-44
2023/10/23 08:11:02;;;;;;;;;;;;;;;22.49;46.32;100968.88;7393759;19;1819;-43
2023/10/23 08:13:30;;;;;;;;;;;;;;;22.29;46.68;100970.00;7394285;19;1541;-43
2023/10/23 08:15:59;;;;;;;;;;;;;;;22.72;45.64;100969.25;7393202;19;1859;-43
2023/10/23 08:18:27;;;;;;;;;;;;;;;22.72;45.45;100968.38;7390912;19;1497;-44
2023/10/23 08:20:58;;;;;;;;;;;;;;;22.70;45.86;100970.38;7392094;19;1492;-43
2023/10/23 08:23:26;;;;;;;;;;;;;;;22.67;45.79;100970.72;7390422;19;1591;-43
2023/10/23 08:25:55;;;;;;;;;;;;;;;22.61;46.07;100972.19;7392606;19;1747;-43
2023/10/23 08:28:23;;;;;;;;;;;;;;;22.61;46.18;100966.78;7391334;19;1370;-43
2023/10/23 08:30:54;;;;;;;;;;;;;;;22.65;46.23;100984.34;7389816;19;1740;-43
2023/10/23 08:33:22;;;;;;;;;;;;;;;22.90;45.94;100968.38;7391889;19;1312;-43
2023/10/23 08:35:51;;;;;;;;;;;;;;;22.86;45.74;100965.16;7389621;19;1975;-43
2023/10/23 08:38:22;;;;;;;;;;;;;;;22.78;46.22;100975.84;7390472;19;1711;-43
2023/10/23 08:40:50;;;;;;;;;;;;;;;22.83;46.04;100957.38;7391072;19;1759;-43
2023/10/23 08:43:19;;;;;;;;;;;;;;;22.80;46.23;100971.16;7391114;19;1708;-43
2023/10/23 08:45:48;;;;;;;;;;;;;;;22.74;46.14;100975.34;7391779;19;1868;-43
2023/10/23 08:48:17;;;;;;;;;;;;;;;22.85;45.84;100971.53;7387540;19;1601;-43
2023/10/23 08:50:45;;;;;;;;;;;;;;;22.92;45.90;100956.44;7394870;19;1804;-44
2023/10/23 08:53:15;;;;;;;;;;;;;;;22.94;45.73;100961.66;7394314;19;1826;-43
2023/10/23 08:55:47;;;;;;;;;;;;;;;22.83;46.17;100951.97;7395141;19;1847;-43
2023/10/23 08:58:16;;;;;;;;;;;;;;;22.76;46.17;100954.47;7395111;19;1732;-43
2023/10/23 09:00:45;;;;;;;;;;;;;;;22.66;46.26;100955.53;7379170;19;1459;-43
2023/10/23 09:03:14;;;;;;;;;;;;;;;22.69;46.60;100966.00;7395035;19;1838;-43
2023/10/23 09:05:42;;;;;;;;;;;;;;;22.72;46.48;100968.38;7394992;19;1448;-43
2023/10/23 09:08:11;;;;;;;;;;;;;;;22.78;46.29;100952.44;7394481;19;1822;-43
2023/10/23 09:10:54;;;;;;;;;;;;;;;22.71;46.34;100945.97;7394022;19;1460;-43
2023/10/23 09:13:26;;;;;;;;;;;;;;;22.71;46.61;100953.22;7393658;19;1850;-43
2023/10/23 09:15:54;;;;;;;;;;;;;;;22.97;46.01;100945.16;7392974;19;1858;-43
2023/10/23 09:18:23;;;;;;;;;;;;;;;22.91;45.81;100951.19;7392188;19;1497;-43
2023/10/23 09:20:52;;;;;;;;;;;;;;;23.00;45.79;100942.19;7393087;19;1411;-43
2023/10/23 09:23:20;;;;;;;;;;;;;;;22.96;45.86;100944.34;7393807;19;1439;-43
2023/10/23 09:25:50;;;;;;;;;;;;;;;22.92;45.94;100942.97;7393335;19;2562;-43
2023/10/23 09:28:19;;;;;;;;;;;;;;;22.97;45.81;100946.00;7392381;19;1696;-43
2023/10/23 09:30:50;;;;;;;;;;;;;;;23.02;45.80;100937.50;7394894;19;1552;-44
2023/10/23 09:33:18;;;;;;;;;;;;;;;22.94;45.88;100927.47;7394064;19;1495;-43
2023/10/23 09:35:46;;;;;;;;;;;;;;;22.86;45.99;100927.41;7393438;19;1858;-43
2023/10/23 09:38:15;;;;;;;;;;;;;;;22.91;45.94;100925.06;7392305;19;1550;-43
2023/10/23 09:40:43;;;;;;;;;;;;;;;22.92;46.22;100921.38;7392171;19;1443;-43
2023/10/23 09:43:13;;;;;;;;;;;;;;;22.93;46.12;100928.44;7392683;19;1605;-43
2023/10/23 09:45:43;;;;;;;;;;;;;;;22.88;46.04;100919.13;7392485;19;1611;-43
2023/10/23 09:48:14;;;;;;;;;;;;;;;22.91;45.91;100924.22;7393191;19;1578;-40
2023/10/23 09:50:45;;;;;;;;;;;;;;;22.88;46.10;100930.78;7392275;19;1451;-40
2023/10/23 09:53:14;;;;;;;;;;;;;;;22.76;46.34;100921.25;7391212;19;1720;-40
2023/10/23 09:55:44;;;;;;;;;;;;;;;22.77;46.35;100933.72;7392901;19;1875;-40
2023/10/23 09:58:16;;;;;;;;;;;;;;;22.88;46.08;100930.78;7393483;19;1909;-40
2023/10/23 10:00:47;;;;;;;;;;;;;;;22.97;45.93;100913.66;7377661;19;1467;-40
2023/10/23 10:03:19;;;;;;;;;;;;;;;22.99;45.79;100933.22;7392223;19;1398;-40
2023/10/23 10:05:48;;;;;;;;;;;;;;;22.98;46.22;100926.16;7392522;19;1824;-40
2023/10/23 10:08:18;;;;;;;;;;;;;;;22.89;46.15;100929.78;7391674;19;1729;-40
2023/10/23 10:10:46;;;;;;;;;;;;;;;22.82;46.39;100908.00;7392412;19;1799;-40
2023/10/23 10:13:16;;;;;;;;;;;;;;;22.85;46.20;100925.69;7391226;19;1514;-40
2023/10/23 10:15:45;;;;;;;;;;;;;;;22.85;46.19;100920.31;7391461;19;1851;-42
2023/10/23 10:18:16;;;;;;;;;;;;;;;22.74;46.40;100907.94;7390679;19;1735;-41
2023/10/23 10:20:48;;;;;;;;;;;;;;;22.73;46.51;100910.78;7391393;19;2351;-43
2023/10/23 10:23:18;;;;;;;;;;;;;;;22.68;46.67;100913.09;7392637;19;1732;-43
2023/10/23 10:25:48;;;;;;;;;;;;;;;22.64;46.69;100889.16;7392312;19;1823;-43
2023/10/23 10:28:16;;;;;;;;;;;;;;;22.76;46.47;100902.38;7393103;19;1479;-43
2023/10/23 10:30:45;;;;;;;;;;;;;;;22.90;46.25;100907.22;7399479;19;1809;-43
2023/10/23 10:33:18;;;;;;;;;;;;;;;22.98;45.80;100892.94;7399608;19;1942;-44
2023/10/23 10:35:52;;;;;;;;;;;;;;;23.02;46.03;100894.34;7399007;19;1857;-43
2023/10/23 10:38:25;;;;;;;;;;;;;;;23.15;45.74;100899.28;7400222;19;1530;-64
2023/10/23 10:40:56;;;;;;;;;;;;;;;23.07;45.92;100893.84;7398056;19;1790;-42
2023/10/23 10:43:25;;;;;;;;;;;;;;;23.10;45.69;100889.00;7399597;19;1613;-42
2023/10/23 10:45:55;;;;;;;;;;;;;;;23.06;45.66;100895.72;7397285;19;1526;-40
2023/10/23 10:48:24;;;;;;;;;;;;;;;22.95;46.11;100899.47;7399937;19;1469;-42
2023/10/23 10:50:56;;;;;;;;;;;;;;;22.82;46.53;100878.34;7398287;19;1491;-42
2023/10/23 10:53:26;;;;;;;;;;;;;;;22.77;46.67;100893.28;7398202;19;1522;-42
2023/10/23 10:55:54;;;;;;;;;;;;;;;22.73;46.79;100878.44;7399810;19;1868;-42
2023/10/23 10:58:23;;;;;;;;;;;;;;;22.76;46.53;100883.50;7399463;19;1518;-42
2023/10/23 11:00:52;;;;;;;;;;;;;;;22.77;46.68;100875.25;7383995;19;1478;-42
2023/10/23 11:03:21;;;;;;;;;;;;;;;22.83;46.35;100869.22;7399990;19;1486;-43
2023/10/23 11:05:49;;;;;;;;;;;;;;;22.86;46.64;100873.47;7399862;19;1740;-42
2023/10/23 11:08:20;;;;;;;;;;;;;;;22.86;46.54;100868.09;7398939;19;1991;-42
2023/10/23 11:10:48;;;;;;;;;;;;;;;22.96;46.05;100868.81;7397896;19;1550;-43
2023/10/23 11:13:17;;;;;;;;;;;;;;;23.03;46.07;100874.44;7397587;19;1491;-42
2023/10/23 11:15:45;;;;;;;;;;;;;;;22.97;46.37;100869.66;7397277;19;1838;-41
2023/10/23 11:18:13;;;;;;;;;;;;;;;22.98;46.13;100853.31;7394182;19;2887;-42
2023/10/23 11:20:42;;;;;;;;;;;;;;;23.06;45.73;100865.19;7397124;19;1733;-42
2023/10/23 11:23:16;;;;;;;;;;;;;;;23.00;45.89;100854.00;7398134;19;1552;-42
2023/10/23 11:25:49;;;;;;;;;;;;;;;23.16;45.61;100865.94;7398005;19;1799;-42
2023/10/23 11:28:18;;;;;;;;;;;;;;;22.99;45.84;100857.69;7398542;19;1738;-40
2023/10/23 11:30:48;;;;;;;;;;;;;;;23.05;45.75;100867.03;7397911;19;1842;-42
2023/10/23 11:33:17;;;;;;;;;;;;;;;22.98;45.79;100850.63;7397192;19;1830;-42
2023/10/23 11:35:46;;;;;;;;;;;;;;;22.99;45.86;100859.56;7396328;19;1911;-42
2023/10/23 11:38:15;;;;;;;;;;;;;;;22.91;46.44;100856.81;7397212;19;1545;-42
2023/10/23 11:40:44;;;;;;;;;;;;;;;22.84;46.15;100864.69;7396416;19;1748;-42
2023/10/23 11:43:16;;;;;;;;;;;;;;;22.90;46.24;100853.28;7397132;19;1838;-42
2023/10/23 11:45:44;;;;;;;;;;;;;;;22.99;45.86;100844.22;7397964;19;1807;-42
2023/10/23 11:48:14;;;;;;;;;;;;;;;22.99;45.84;100844.22;7395983;19;1843;-42
2023/10/23 11:50:43;;;;;;;;;;;;;;;22.99;45.76;100828.03;7396620;19;1577;-42
2023/10/23 11:53:11;;;;;;;;;;;;;;;22.76;45.92;100811.56;7395912;19;1566;-42
2023/10/23 11:55:40;;;;;;;;;;;;;;;22.84;45.97;100843.97;7397314;19;1141;-42
2023/10/23 11:58:08;;;;;;;;;;;;;;;22.82;46.27;100837.91;7393843;19;1897;-42
2023/10/23 12:00:40;;;;;;;;;;;;;;;22.80;46.09;100847.13;7395947;19;1910;-42
2023/10/23 12:03:08;;;;;;;;;;;;;;;22.79;46.54;100834.66;7381813;19;1874;-42
2023/10/23 12:05:36;;;;;;;;;;;;;;;22.74;46.59;100836.97;7396555;19;1585;-42
2023/10/23 12:08:05;;;;;;;;;;;;;;;22.70;46.54;100814.03;7396766;19;1462;-42
2023/10/23 12:10:37;;;;;;;;;;;;;;;22.78;46.55;100838.34;7395227;19;1538;-41
2023/10/23 12:13:06;;;;;;;;;;;;;;;22.84;46.28;100840.44;7395735;19;1720;-41
2023/10/23 12:15:34;;;;;;;;;;;;;;;22.85;46.33;100855.59;7394772;19;1698;-42
2023/10/23 12:18:05;;;;;;;;;;;;;;;22.81;46.23;100838.03;7391126;19;1873;-42
2023/10/23 12:20:34;;;;;;;;;;;;;;;22.79;46.20;100840.06;7394816;19;1397;-42
2023/10/23 12:23:02;;;;;;;;;;;;;;;22.83;46.09;100842.25;7395010;19;1470;-42
2023/10/23 12:25:30;;;;;;;;;;;;;;;22.82;46.43;100834.34;7394689;19;1403;-42
2023/10/23 12:27:59;;;;;;;;;;;;;;;22.83;46.39;100846.81;7394246;19;1507;-42
2023/10/23 12:30:27;;;;;;;;;;;;;;;22.74;46.72;100831.59;7393726;19;1395;-42
2023/10/23 12:32:55;;;;;;;;;;;;;;;22.65;46.73;100828.00;7395060;19;1800;-42
2023/10/23 12:35:26;;;;;;;;;;;;;;;22.65;46.75;100814.53;7395210;19;1681;-42
2023/10/23 12:37:55;;;;;;;;;;;;;;;22.88;46.46;100839.13;7392351;19;1869;-42
2023/10/23 12:40:23;;;;;;;;;;;;;;;22.82;46.41;100839.75;7394211;19;1525;-42
2023/10/23 12:42:52;;;;;;;;;;;;;;;22.78;46.65;100827.56;7395210;19;1657;-42
2023/10/23 12:45:20;;;;;;;;;;;;;;;22.77;46.65;100848.28;7394766;19;1554;-42
2023/10/23 12:47:48;;;;;;;;;;;;;;;22.77;46.52;100828.59;7395139;19;1590;-42
2023/10/23 12:50:17;;;;;;;;;;;;;;;22.78;46.68;100846.44;7395102;19;1357;-42
2023/10/23 12:52:48;;;;;;;;;;;;;;;22.82;46.45;100823.56;7392588;19;1879;-42
2023/10/23 12:55:16;;;;;;;;;;;;;;;22.75;46.58;100822.50;7384051;19;1837;-42
2023/10/23 12:57:46;;;;;;;;;;;;;;;22.82;46.31;100819.03;7388502;19;1855;-42